Time;durP1;ratioP1;P1;durP2;ratioP2;P2;SDS_P1;SDS_P2;PMS_P1;PMS_P2;Temp;Humidity;BMP_temperature;BMP_pressure;BME280_temperature;BME280_humidity;BME280_pressure;Samples;Min_cycle;Max_cycle;Signal;HPM_P1;HPM_P2
2023/11/19 00:00:17;;;;;;;0.70;0.70;;;6.70;63.50;;;7.11;49.54;95196.50;5015721;28;20193;-59
2023/11/19 00:02:45;;;;;;;0.70;0.70;;;6.70;63.50;;;7.02;49.74;95199.09;5015910;28;20280;-57
2023/11/19 00:05:13;;;;;;;0.60;0.60;;;6.80;63.50;;;6.97;49.90;95198.78;5016022;28;20233;-59
2023/11/19 00:07:42;;;;;;;0.70;0.70;;;6.80;63.50;;;6.94;49.90;95193.06;5015783;28;20206;-55
2023/11/19 00:10:18;;;;;;;0.70;0.70;;;6.80;63.60;;;6.97;49.76;95196.16;5015763;28;20617;-56
2023/11/19 00:12:48;;;;;;;0.70;0.70;;;6.80;63.90;;;6.98;49.75;95186.53;5016038;28;20201;-56
2023/11/19 00:15:18;;;;;;;0.80;0.80;;;6.80;63.70;;;7.00;49.91;95172.34;5016013;28;20197;-58
2023/11/19 00:17:48;;;;;;;0.70;0.70;;;6.80;63.90;;;7.12;49.96;95174.66;5015802;28;20653;-57
2023/11/19 00:20:19;;;;;;;0.70;0.70;;;6.70;63.80;;;7.09;50.11;95165.34;5014350;28;20252;-57
2023/11/19 00:22:54;;;;;;;0.70;0.70;;;6.80;64.10;;;7.12;49.69;95165.03;5015757;28;20217;-58
2023/11/19 00:25:21;;;;;;;0.60;0.60;;;6.80;63.90;;;7.17;49.65;95177.59;5015403;28;20241;-57
2023/11/19 00:27:51;;;;;;;0.60;0.60;;;6.80;64.00;;;7.26;49.83;95181.00;5015684;28;20819;-58
2023/11/19 00:30:19;;;;;;;0.50;0.50;;;6.80;64.20;;;7.19;49.68;95162.59;5014074;28;20297;-59
2023/11/19 00:32:46;;;;;;;0.70;0.70;;;6.80;64.20;;;7.25;49.78;95171.53;5015442;28;20200;-53
2023/11/19 00:35:14;;;;;;;0.60;0.60;;;6.80;64.20;;;7.33;49.86;95172.34;5030574;28;20664;-59
2023/11/19 00:37:42;;;;;;;0.60;0.60;;;6.80;64.30;;;7.29;49.68;95165.81;5013430;28;20225;-57
2023/11/19 00:40:11;;;;;;;0.60;0.60;;;6.80;64.30;;;7.32;49.67;95149.03;5015288;28;20630;-55
2023/11/19 00:42:38;;;;;;;0.50;0.50;;;6.80;64.30;;;7.34;49.92;95155.69;5047180;28;20205;-59
2023/11/19 00:45:12;;;;;;;0.60;0.60;;;6.80;64.30;;;7.30;49.74;95138.75;5047081;28;20558;-56
2023/11/19 00:47:39;;;;;;;0.60;0.60;;;6.80;64.30;;;7.33;49.80;95140.22;5013859;28;20652;-57
2023/11/19 00:50:11;;;;;;;0.60;0.60;;;6.90;64.30;;;7.27;50.42;95139.06;5030198;28;20215;-55
2023/11/19 00:52:39;;;;;;;0.60;0.60;;;6.80;64.30;;;7.19;50.28;95123.47;5030185;28;20219;-55
2023/11/19 00:55:08;;;;;;;0.68;0.68;;;6.80;64.20;;;7.20;50.37;95122.47;5015343;28;20244;-57
2023/11/19 00:57:36;;;;;;;0.70;0.70;;;6.80;64.30;;;7.15;50.37;95122.13;5030286;28;20221;-58
2023/11/19 01:00:27;;;;;;;0.70;0.70;;;6.90;64.40;;;7.03;50.41;95119.88;5046584;28;20288;-59
2023/11/19 01:02:53;;;;;;;0.60;0.60;;;6.80;64.30;;;6.99;50.51;95112.53;5029922;28;20221;-59
2023/11/19 01:05:22;;;;;;;0.60;0.60;;;6.80;64.30;;;7.05;50.71;95117.09;5014874;28;20593;-56
2023/11/19 01:07:53;;;;;;;0.60;0.60;;;6.80;64.30;;;7.03;50.93;95099.03;5046634;28;20218;-54
2023/11/19 01:10:22;;;;;;;0.60;0.60;;;6.80;64.30;;;7.08;50.80;95092.47;5029642;28;20212;-57
2023/11/19 01:12:49;;;;;;;0.70;0.70;;;6.80;64.50;;;7.10;50.56;95086.13;5014737;28;20609;-55
2023/11/19 01:15:20;;;;;;;0.57;0.57;;;6.80;64.50;;;7.13;50.69;95087.56;5029794;28;20293;-56
2023/11/19 01:17:48;;;;;;;0.70;0.70;;;6.80;64.50;;;7.12;50.58;95089.38;5029982;28;20233;-57
2023/11/19 01:20:20;;;;;;;0.70;0.70;;;6.80;64.50;;;7.10;50.89;95086.13;5014377;28;20202;-58
2023/11/19 01:22:50;;;;;;;0.70;0.70;;;6.80;64.50;;;7.05;51.44;95077.97;5014574;28;20248;-58
2023/11/19 01:25:17;;;;;;;0.70;0.70;;;6.90;64.60;;;6.95;51.53;95061.72;5013291;28;20221;-55
2023/11/19 01:27:45;;;;;;;0.70;0.70;;;6.80;64.50;;;6.85;51.49;95052.25;5029394;28;20205;-55
2023/11/19 01:30:13;;;;;;;0.60;0.60;;;6.80;64.40;;;6.77;51.75;95049.66;5014090;28;20201;-57
2023/11/19 01:32:40;;;;;;;0.70;0.70;;;6.80;64.40;;;6.73;51.67;95041.34;5014197;28;20248;-58
2023/11/19 01:35:08;;;;;;;0.80;0.80;;;6.80;64.40;;;6.72;51.57;95031.09;5046084;28;20197;-55
2023/11/19 01:37:36;;;;;;;0.70;0.70;;;6.80;64.60;;;6.67;51.76;95018.56;5029207;28;20249;-58
2023/11/19 01:40:06;;;;;;;0.73;0.73;;;6.70;64.60;;;6.78;51.72;95032.25;5013986;28;20198;-57
2023/11/19 01:42:38;;;;;;;0.70;0.70;;;6.70;64.70;;;6.82;51.76;95026.53;5012823;28;20288;-58
2023/11/19 01:45:10;;;;;;;0.70;0.70;;;6.70;65.20;;;6.86;51.42;95029.59;5029367;28;20205;-58
2023/11/19 01:47:38;;;;;;;0.70;0.70;;;6.70;65.00;;;6.95;51.61;95033.03;5012707;28;20205;-58
2023/11/19 01:50:08;;;;;;;0.80;0.80;;;6.70;65.00;;;7.07;51.67;95042.13;5012022;28;20205;-57
2023/11/19 01:52:37;;;;;;;0.70;0.70;;;6.70;65.20;;;7.12;51.39;95032.00;5013588;28;20193;-58
2023/11/19 01:55:08;;;;;;;0.60;0.60;;;6.80;65.30;;;7.17;51.14;95023.69;5045755;28;20267;-57
2023/11/19 01:57:38;;;;;;;0.60;0.60;;;6.80;65.40;;;7.21;51.08;95019.75;5029071;28;20317;-57
2023/11/19 02:00:11;;;;;;;0.70;0.70;;;6.80;65.30;;;7.29;51.25;95021.53;5013632;28;20202;-56
2023/11/19 02:02:46;;;;;;;0.70;0.70;;;6.80;65.30;;;7.27;51.16;95007.84;5027885;28;20193;-59
2023/11/19 02:05:14;;;;;;;0.70;0.70;;;6.80;65.30;;;7.28;51.03;94999.81;5045151;28;20233;-58
2023/11/19 02:07:42;;;;;;;0.80;0.80;;;6.90;65.30;;;7.33;50.92;94999.31;5013749;28;20288;-56
2023/11/19 02:10:13;;;;;;;0.70;0.70;;;6.80;65.20;;;7.36;51.05;95012.00;5013888;28;20532;-58
2023/11/19 02:12:44;;;;;;;0.60;0.60;;;6.90;65.30;;;7.34;51.37;95014.00;5028811;28;20305;-56
2023/11/19 02:15:12;;;;;;;0.70;0.70;;;6.80;65.30;;;7.39;51.34;95005.66;5045345;28;20233;-55
2023/11/19 02:17:40;;;;;;;0.70;0.70;;;6.90;65.30;;;7.36;51.27;94991.16;5012032;28;20244;-58
2023/11/19 02:20:11;;;;;;;0.70;0.70;;;6.90;65.30;;;7.42;51.16;94987.06;5045278;28;20292;-57
2023/11/19 02:22:40;;;;;;;0.70;0.70;;;7.00;65.30;;;7.40;51.16;94973.34;5045225;28;20209;-58
2023/11/19 02:25:17;;;;;;;0.70;0.70;;;7.00;65.30;;;7.44;51.14;94982.47;5028611;28;20292;-58
2023/11/19 02:28:01;;;;;;;0.70;0.70;;;7.00;65.30;;;7.32;51.11;94962.00;5012163;28;20201;-58
2023/11/19 02:30:29;;;;;;;0.70;0.70;;;7.00;65.70;;;7.31;51.33;94960.38;5044970;28;20288;-55
2023/11/19 02:32:58;;;;;;;0.80;0.80;;;7.00;65.20;;;7.36;51.02;94967.66;5028565;28;20201;-57
2023/11/19 02:35:26;;;;;;;0.70;0.70;;;6.90;66.00;;;7.29;51.13;94957.09;5012082;28;20663;-58
2023/11/19 02:37:59;;;;;;;0.70;0.70;;;6.90;65.20;;;7.22;51.66;94949.13;5011867;28;20317;-58
2023/11/19 02:40:26;;;;;;;0.70;0.70;;;7.00;65.40;;;7.21;51.40;94959.75;5028052;28;20213;-58
2023/11/19 02:42:57;;;;;;;0.80;0.80;;;6.90;65.10;;;7.17;51.76;94948.84;5028397;28;20645;-57
2023/11/19 02:45:26;;;;;;;0.70;0.70;;;6.90;65.20;;;7.11;51.79;94933.88;5028350;28;20201;-56
2023/11/19 02:47:55;;;;;;;0.60;0.60;;;6.90;65.20;;;7.12;51.90;94942.53;5013036;28;20208;-58
2023/11/19 02:50:26;;;;;;;0.70;0.70;;;6.90;65.20;;;7.02;52.25;94916.63;5012511;28;20193;-57
2023/11/19 02:52:58;;;;;;;0.70;0.70;;;6.90;65.20;;;7.02;51.92;94909.63;5028229;28;20212;-59
2023/11/19 02:55:27;;;;;;;0.70;0.70;;;6.80;65.50;;;6.95;52.59;94895.63;5044590;28;20216;-59
2023/11/19 02:57:58;;;;;;;0.70;0.70;;;6.80;65.30;;;6.77;53.74;94889.84;5011651;28;20224;-58
2023/11/19 03:00:35;;;;;;;0.70;0.70;;;6.80;65.50;;;6.69;53.29;94906.34;5044327;28;20205;-59
2023/11/19 03:03:17;;;;;;;0.70;0.70;;;6.80;65.40;;;6.52;53.85;94911.56;5012854;28;20193;-58
2023/11/19 03:05:47;;;;;;;0.57;0.57;;;6.70;65.50;;;6.48;53.43;94910.28;5011176;28;20295;-58
2023/11/19 03:08:16;;;;;;;0.70;0.70;;;6.70;65.50;;;6.41;53.78;94899.72;5012674;28;20215;-59
2023/11/19 03:10:46;;;;;;;0.65;0.65;;;6.60;65.50;;;6.41;53.97;94909.31;5028097;28;20208;-57
2023/11/19 03:13:14;;;;;;;0.80;0.80;;;6.60;65.50;;;6.38;53.72;94899.22;5012741;28;20201;-57
2023/11/19 03:15:42;;;;;;;0.70;0.70;;;6.60;65.70;;;6.34;54.01;94890.94;5027698;28;20669;-58
2023/11/19 03:18:09;;;;;;;0.70;0.70;;;6.50;65.60;;;6.38;54.44;94899.22;5011195;28;20232;-58
2023/11/19 03:20:37;;;;;;;0.70;0.70;;;6.50;65.70;;;6.38;53.73;94905.25;5027673;28;20209;-54
2023/11/19 03:23:06;;;;;;;0.70;0.70;;;6.50;65.70;;;6.44;53.88;94901.16;5044426;28;20606;-57
2023/11/19 03:25:34;;;;;;;0.70;0.70;;;6.50;65.90;;;6.49;53.49;94888.44;5027956;28;20209;-59
2023/11/19 03:28:02;;;;;;;0.70;0.70;;;6.50;65.90;;;6.50;53.33;94884.06;5027782;28;20205;-55
2023/11/19 03:30:31;;;;;;;0.57;0.57;;;6.50;66.00;;;6.65;53.39;94889.38;5010873;28;20290;-57
2023/11/19 03:33:02;;;;;;;0.70;0.70;;;6.50;66.10;;;6.62;53.37;94879.31;5044594;28;20605;-54
2023/11/19 03:35:30;;;;;;;0.65;0.65;;;6.50;66.00;;;6.64;53.53;94895.56;5012440;28;20225;-56
2023/11/19 03:37:58;;;;;;;0.70;0.70;;;6.50;66.00;;;6.67;53.43;94892.66;5044333;28;20209;-56
2023/11/19 03:40:25;;;;;;;0.80;0.80;;;6.60;66.10;;;6.77;53.21;94892.44;5027300;28;20255;-56
2023/11/19 03:42:53;;;;;;;0.70;0.70;;;6.60;66.10;;;6.76;53.49;94881.19;5012323;28;20204;-58
2023/11/19 03:45:20;;;;;;;0.70;0.70;;;6.60;66.10;;;6.70;53.96;94879.25;5012405;28;20578;-57
2023/11/19 03:47:50;;;;;;;0.70;0.70;;;6.60;66.10;;;6.66;53.37;94888.41;5012611;28;20259;-59
2023/11/19 03:50:19;;;;;;;0.70;0.70;;;6.60;66.00;;;6.69;53.72;94888.88;5012010;28;20193;-57
2023/11/19 03:52:48;;;;;;;0.60;0.60;;;6.60;66.00;;;6.67;53.78;94890.03;5027662;28;20216;-58
2023/11/19 03:55:16;;;;;;;0.50;0.50;;;6.60;66.00;;;6.63;53.55;94875.69;5012381;28;20202;-58
2023/11/19 03:57:43;;;;;;;0.70;0.70;;;6.60;66.90;;;6.60;53.87;94866.44;5044074;28;20205;-58
2023/11/19 04:00:13;;;;;;;0.70;0.70;;;6.70;66.00;;;6.56;53.95;94872.97;5044250;28;20562;-58
2023/11/19 04:02:41;;;;;;;0.68;0.68;;;6.60;66.00;;;6.55;54.16;94866.97;5012441;28;20198;-58
2023/11/19 04:05:09;;;;;;;0.70;0.70;;;6.60;66.00;;;6.48;54.05;94872.97;5010832;28;20241;-55
2023/11/19 04:07:37;;;;;;;0.60;0.60;;;6.60;66.00;;;6.55;53.96;94871.34;5010970;28;20688;-58
2023/11/19 04:10:05;;;;;;;0.70;0.70;;;6.60;66.20;;;6.60;53.81;94868.22;5027344;28;20573;-58
2023/11/19 04:12:33;;;;;;;0.68;0.68;;;6.60;66.40;;;6.72;53.56;94879.91;5012175;28;20202;-59
2023/11/19 04:15:00;;;;;;;0.70;0.70;;;6.60;66.50;;;6.75;53.37;94850.09;5015694;28;20656;-59
2023/11/19 04:17:28;;;;;;;0.60;0.60;;;6.60;66.50;;;6.86;53.29;94842.72;5014624;28;20202;-58
2023/11/19 04:19:56;;;;;;;0.70;0.70;;;6.60;66.60;;;6.91;53.40;94842.22;5030803;28;20597;-59
2023/11/19 04:22:24;;;;;;;0.70;0.70;;;6.60;66.50;;;6.89;53.18;94825.91;5013853;28;20212;-59
2023/11/19 04:24:51;;;;;;;0.70;0.70;;;6.60;66.50;;;6.92;53.04;94824.75;5030696;28;20292;-56
2023/11/19 04:27:19;;;;;;;0.70;0.70;;;6.70;66.50;;;7.02;53.22;94820.94;5014504;28;20728;-58
2023/11/19 04:29:46;;;;;;;0.60;0.60;;;6.70;66.50;;;7.07;53.13;94811.78;5047446;28;20206;-57
2023/11/19 04:32:14;;;;;;;0.70;0.70;;;6.70;66.60;;;7.06;53.11;94811.00;5047009;28;20201;-58
2023/11/19 04:34:42;;;;;;;0.63;0.63;;;6.70;66.60;;;7.14;53.07;94815.34;5015340;28;20193;-55
2023/11/19 04:37:09;;;;;;;0.63;0.63;;;6.70;66.50;;;7.12;53.16;94802.47;5015217;28;20221;-56
2023/11/19 04:39:40;;;;;;;0.70;0.70;;;6.80;66.50;;;7.08;53.13;94808.19;5015472;28;20259;-56
2023/11/19 04:42:08;;;;;;;0.63;0.63;;;6.80;66.40;;;7.04;53.19;94805.13;5015082;28;20268;-56
2023/11/19 04:44:35;;;;;;;0.60;0.60;;;6.80;66.40;;;7.03;53.37;94801.72;5014922;28;20202;-57
2023/11/19 04:47:03;;;;;;;0.70;0.70;;;6.80;66.40;;;6.98;53.21;94800.59;5015078;28;20208;-57
2023/11/19 04:49:30;;;;;;;0.70;0.70;;;6.80;66.30;;;6.97;53.48;94799.81;5015142;28;20201;-58
2023/11/19 04:51:59;;;;;;;0.70;0.70;;;6.80;66.30;;;6.90;53.45;94785.81;5014809;28;20194;-57
2023/11/19 04:54:26;;;;;;;0.55;0.55;;;6.80;66.30;;;6.85;53.68;94783.72;5014896;28;20631;-57
2023/11/19 04:56:54;;;;;;;0.50;0.50;;;6.80;66.40;;;6.90;53.61;94785.81;5015018;28;20197;-58
2023/11/19 04:59:21;;;;;;;0.60;0.60;;;6.80;66.30;;;6.81;53.82;94779.03;5014815;28;20559;-57
2023/11/19 05:01:48;;;;;;;0.60;0.60;;;6.80;66.30;;;6.79;53.46;94775.81;5030069;28;20255;-57
2023/11/19 05:04:18;;;;;;;0.80;0.80;;;6.80;66.30;;;6.75;54.41;94777.94;5014901;28;20198;-56
2023/11/19 05:06:46;;;;;;;0.75;0.75;;;6.80;66.40;;;6.61;54.54;94765.63;5014510;28;20229;-57
2023/11/19 05:09:14;;;;;;;0.70;0.70;;;6.80;66.40;;;6.48;54.60;94753.13;5014632;28;20207;-58
2023/11/19 05:11:41;;;;;;;0.70;0.70;;;6.70;66.30;;;6.48;54.26;94764.38;5014472;28;20201;-58
2023/11/19 05:14:12;;;;;;;0.70;0.70;;;6.70;66.30;;;6.46;54.49;94755.91;5014560;28;20194;-53
2023/11/19 05:16:45;;;;;;;0.60;0.60;;;6.70;66.30;;;6.43;54.53;94748.44;5014534;28;20205;-56
2023/11/19 05:19:14;;;;;;;0.60;0.60;;;6.70;66.60;;;6.47;54.71;94754.94;5014308;28;20217;-58
2023/11/19 05:21:44;;;;;;;0.70;0.70;;;6.60;66.40;;;6.50;54.40;94745.97;5014267;28;20308;-58
2023/11/19 05:24:12;;;;;;;0.50;0.50;;;6.60;66.70;;;6.56;54.60;94743.47;5013626;28;20193;-55
2023/11/19 05:26:40;;;;;;;0.70;0.70;;;6.60;66.70;;;6.62;54.42;94743.81;5014311;28;20206;-55
2023/11/19 05:29:07;;;;;;;0.60;0.60;;;6.60;66.80;;;6.73;54.10;94748.63;5014316;28;20217;-56
2023/11/19 05:31:35;;;;;;;0.70;0.70;;;6.60;66.80;;;6.77;53.92;94733.44;5014054;28;20581;-56
2023/11/19 05:34:04;;;;;;;0.50;0.50;;;6.60;66.90;;;6.82;54.01;94738.94;5014659;28;20244;-57
2023/11/19 05:36:32;;;;;;;0.60;0.60;;;6.60;66.80;;;6.84;54.14;94743.00;5029116;28;20575;-58
2023/11/19 05:39:00;;;;;;;0.70;0.70;;;6.70;66.80;;;6.78;54.47;94740.28;5014068;28;20217;-56
2023/11/19 05:41:27;;;;;;;0.70;0.70;;;6.70;66.80;;;6.75;54.04;94741.44;5014003;28;20575;-54
2023/11/19 05:43:55;;;;;;;0.70;0.70;;;6.70;66.70;;;6.70;54.71;94730.69;5014015;28;20193;-57
2023/11/19 05:46:22;;;;;;;0.70;0.70;;;6.70;66.80;;;6.72;54.80;94736.56;5028888;28;20189;-58
2023/11/19 05:48:51;;;;;;;0.70;0.70;;;6.70;67.10;;;6.67;54.84;94737.06;5029250;28;20726;-58
2023/11/19 05:51:18;;;;;;;0.70;0.70;;;6.70;66.80;;;6.63;54.60;94727.97;5013973;28;20201;-58
2023/11/19 05:53:46;;;;;;;0.70;0.70;;;6.70;66.80;;;6.60;54.75;94719.69;5013936;28;20195;-56
2023/11/19 05:56:15;;;;;;;0.70;0.70;;;6.70;66.80;;;6.65;54.84;94722.59;5013607;28;20217;-51
2023/11/19 05:58:44;;;;;;;0.57;0.57;;;6.70;67.70;;;6.61;54.74;94713.50;5013537;28;20217;-58
2023/11/19 06:01:12;;;;;;;0.70;0.70;;;6.70;66.90;;;6.59;54.83;94698.03;5045619;28;20205;-55
2023/11/19 06:03:40;;;;;;;0.70;0.70;;;6.70;66.90;;;6.58;54.89;94686.00;5013729;28;20205;-57
2023/11/19 06:06:08;;;;;;;0.70;0.70;;;6.70;66.90;;;6.62;55.04;94678.66;5028681;28;20237;-56
2023/11/19 06:08:37;;;;;;;0.70;0.70;;;6.70;66.90;;;6.55;55.00;94668.09;5013695;28;20197;-59
2023/11/19 06:11:04;;;;;;;0.70;0.70;;;6.70;66.90;;;6.58;55.02;94672.97;5013443;28;20564;-58
2023/11/19 06:13:32;;;;;;;0.73;0.73;;;6.70;66.90;;;6.59;55.02;94677.16;5012241;28;20663;-57
2023/11/19 06:15:59;;;;;;;0.70;0.70;;;6.60;67.00;;;6.60;54.97;94688.44;5013507;28;20722;-57
2023/11/19 06:18:27;;;;;;;0.70;0.70;;;6.60;67.10;;;6.72;54.87;94690.44;5012022;28;20284;-55
2023/11/19 06:20:55;;;;;;;0.60;0.60;;;6.70;67.20;;;6.72;55.05;94679.22;5013470;28;20212;-58
2023/11/19 06:23:22;;;;;;;0.60;0.60;;;6.70;67.20;;;6.75;54.79;94686.72;5013287;28;20244;-55
2023/11/19 06:25:50;;;;;;;0.70;0.70;;;6.70;67.20;;;6.69;55.20;94685.59;5013262;28;20205;-58
2023/11/19 06:28:17;;;;;;;0.60;0.60;;;6.70;67.20;;;6.71;54.92;94686.25;5013218;28;20221;-57
2023/11/19 06:30:45;;;;;;;0.70;0.70;;;6.70;67.30;;;6.73;55.25;94681.66;5013663;28;20193;-55
2023/11/19 06:33:15;;;;;;;0.60;0.60;;;6.70;67.30;;;6.69;55.41;94675.16;5013162;28;20201;-57
2023/11/19 06:35:43;;;;;;;0.70;0.70;;;6.80;67.30;;;6.69;55.19;94679.59;5012714;28;20193;-58
2023/11/19 06:38:11;;;;;;;0.68;0.68;;;6.70;67.20;;;6.69;55.46;94676.97;5013094;28;20201;-57
2023/11/19 06:40:41;;;;;;;0.70;0.70;;;6.80;67.20;;;6.62;55.66;94669.03;5028121;28;20217;-53
2023/11/19 06:43:08;;;;;;;0.60;0.60;;;6.80;67.30;;;6.57;55.71;94666.13;5012881;28;20200;-55
2023/11/19 06:45:36;;;;;;;0.70;0.70;;;6.70;67.50;;;6.54;56.26;94663.84;5013132;28;20202;-56
2023/11/19 06:48:05;;;;;;;0.70;0.70;;;6.70;67.40;;;6.53;56.59;94646.59;5028469;28;20663;-57
2023/11/19 06:50:33;;;;;;;0.70;0.70;;;6.70;67.50;;;6.55;56.22;94658.50;5012964;28;20283;-57
2023/11/19 06:53:01;;;;;;;0.60;0.60;;;6.70;67.40;;;6.56;55.81;94662.69;5012964;28;20281;-57
2023/11/19 06:55:28;;;;;;;0.65;0.65;;;6.70;67.50;;;6.55;55.92;94645.47;5013080;28;20200;-58
2023/11/19 06:57:56;;;;;;;0.65;0.65;;;6.70;67.60;;;6.62;56.24;94652.59;5012842;28;20294;-57
2023/11/19 07:00:24;;;;;;;0.77;0.77;;;6.70;67.60;;;6.59;56.00;94630.28;5012673;28;20229;-58
2023/11/19 07:02:51;;;;;;;0.70;0.70;;;6.70;67.70;;;6.67;55.89;94632.03;5012703;28;20233;-57
2023/11/19 07:05:19;;;;;;;0.70;0.70;;;6.70;67.70;;;6.64;56.09;94621.94;5027665;28;20221;-57
2023/11/19 07:07:46;;;;;;;0.63;0.63;;;6.70;67.60;;;6.69;56.14;94627.47;5012864;28;20198;-55
2023/11/19 07:10:15;;;;;;;0.70;0.70;;;6.70;67.70;;;6.69;55.73;94627.47;5012547;28;20208;-59
2023/11/19 07:12:43;;;;;;;0.70;0.70;;;6.80;67.90;;;6.77;55.79;94632.59;5012596;28;20600;-56
2023/11/19 07:15:10;;;;;;;0.70;0.70;;;6.80;67.90;;;6.88;55.58;94644.41;5012663;28;20216;-57
2023/11/19 07:17:40;;;;;;;0.70;0.70;;;6.80;68.00;;;6.89;55.68;94633.00;5012556;28;20210;-57
2023/11/19 07:20:09;;;;;;;0.70;0.70;;;6.80;68.00;;;6.97;55.91;94642.53;5012805;28;20229;-54
2023/11/19 07:22:38;;;;;;;0.70;0.70;;;6.90;68.00;;;6.91;55.97;94625.81;5011170;28;20198;-58
2023/11/19 07:25:06;;;;;;;0.70;0.70;;;6.90;67.90;;;6.86;56.67;94631.53;5012618;28;20204;-57
2023/11/19 07:27:33;;;;;;;0.60;0.60;;;6.90;68.00;;;6.81;56.51;94620.84;5012557;28;20202;-58
2023/11/19 07:30:01;;;;;;;0.70;0.70;;;7.00;68.10;;;6.83;56.51;94631.09;5012873;28;20236;-55
2023/11/19 07:32:28;;;;;;;0.70;0.70;;;6.90;68.00;;;6.85;56.62;94634.34;5012101;28;20383;-58
2023/11/19 07:34:56;;;;;;;0.70;0.70;;;7.00;68.10;;;6.89;56.53;94633.78;5012520;28;20212;-57
2023/11/19 07:37:23;;;;;;;0.70;0.70;;;7.00;68.00;;;6.92;56.28;94634.44;5012402;28;20185;-57
2023/11/19 07:39:51;;;;;;;0.70;0.70;;;7.00;68.10;;;6.95;56.61;94628.88;5012413;28;20648;-57
2023/11/19 07:42:19;;;;;;;0.60;0.60;;;7.00;68.10;;;6.89;57.10;94612.13;5012305;28;20225;-56
2023/11/19 07:44:46;;;;;;;0.68;0.68;;;7.10;68.10;;;6.90;56.69;94611.16;5012410;28;20198;-57
2023/11/19 07:47:14;;;;;;;0.70;0.70;;;7.10;68.10;;;6.98;56.45;94621.50;5012484;28;20205;-59
2023/11/19 07:49:43;;;;;;;0.70;0.70;;;7.10;68.10;;;6.98;56.77;94623.28;5016114;28;20198;-58
2023/11/19 07:52:12;;;;;;;0.70;0.70;;;7.20;68.20;;;7.03;56.57;94620.97;5016401;28;20343;-56
2023/11/19 07:54:42;;;;;;;0.70;0.70;;;7.20;68.20;;;7.15;56.58;94632.59;5016073;28;20243;-54
2023/11/19 07:57:10;;;;;;;0.70;0.70;;;7.20;68.30;;;7.27;56.55;94651.22;5015936;28;20279;-56
2023/11/19 07:59:39;;;;;;;0.70;0.70;;;7.20;68.50;;;7.34;56.27;94646.91;5015833;28;20710;-56
2023/11/19 08:02:07;;;;;;;0.80;0.80;;;7.20;68.50;;;7.48;55.98;94662.78;5016052;28;20568;-56
2023/11/19 08:04:34;;;;;;;0.70;0.70;;;7.30;68.60;;;7.52;56.08;94651.81;5015703;28;20207;-54
2023/11/19 08:07:02;;;;;;;0.70;0.70;;;7.30;68.60;;;7.64;55.78;94662.63;5015973;28;20648;-57
2023/11/19 08:09:30;;;;;;;0.68;0.68;;;7.40;68.60;;;7.65;55.52;94655.59;5015919;28;20574;-57
2023/11/19 08:11:58;;;;;;;0.80;0.80;;;7.40;68.50;;;7.69;55.43;94662.88;5015730;28;20197;-55
2023/11/19 08:14:25;;;;;;;0.70;0.70;;;7.40;68.50;;;7.80;55.24;94676.47;5015743;28;20190;-57
2023/11/19 08:16:53;;;;;;;0.65;0.65;;;7.50;68.50;;;7.81;55.26;94675.47;5015718;28;20193;-58
2023/11/19 08:19:20;;;;;;;0.60;0.60;;;7.50;68.50;;;7.90;55.05;94673.56;5016038;28;20739;-56
2023/11/19 08:21:48;;;;;;;0.70;0.70;;;7.50;68.50;;;7.91;55.62;94660.38;5015607;28;20685;-56
2023/11/19 08:24:15;;;;;;;0.60;0.60;;;7.50;68.50;;;7.93;55.18;94650.53;5015353;28;20193;-56
2023/11/19 08:26:42;;;;;;;0.60;0.60;;;7.60;68.60;;;7.99;55.15;94649.78;5015514;28;20197;-55
2023/11/19 08:29:10;;;;;;;0.50;0.50;;;7.60;68.60;;;8.05;55.19;94642.25;5015707;28;20226;-56
2023/11/19 08:31:37;;;;;;;0.70;0.70;;;7.70;68.60;;;8.06;55.29;94628.19;5015327;28;20564;-54
2023/11/19 08:34:08;;;;;;;0.70;0.70;;;7.70;68.60;;;8.11;55.32;94636.28;5015393;28;20197;-56
2023/11/19 08:36:36;;;;;;;0.70;0.70;;;7.80;68.60;;;8.13;55.67;94642.13;5015173;28;20553;-55
2023/11/19 08:39:04;;;;;;;0.60;0.60;;;7.80;68.60;;;8.19;55.34;94633.56;5015208;28;20201;-57
2023/11/19 08:41:31;;;;;;;0.70;0.70;;;7.80;68.60;;;8.24;55.43;94635.63;5015212;28;20288;-56
2023/11/19 08:43:59;;;;;;;0.70;0.70;;;7.90;68.60;;;8.24;55.28;94636.44;5015333;28;20706;-56
2023/11/19 08:46:26;;;;;;;0.65;0.65;;;8.00;68.80;;;8.34;55.33;94652.63;5014989;28;20662;-58
2023/11/19 08:48:56;;;;;;;0.60;0.60;;;8.00;68.80;;;8.38;55.49;94639.19;5015221;28;20220;-58
2023/11/19 08:51:25;;;;;;;0.60;0.60;;;8.00;68.80;;;8.43;55.39;94645.47;5014929;28;20225;-59
2023/11/19 08:53:52;;;;;;;0.70;0.70;;;8.10;68.80;;;8.44;55.33;94630.63;5014978;28;20204;-53
2023/11/19 08:56:20;;;;;;;0.70;0.70;;;8.10;68.70;;;8.51;55.22;94635.94;5015135;28;20212;-57
2023/11/19 08:58:47;;;;;;;0.70;0.70;;;8.10;68.70;;;8.56;55.27;94657.91;5014621;28;20648;-56
2023/11/19 09:01:15;;;;;;;0.70;0.70;;;8.20;68.70;;;8.54;55.02;94646.03;5014752;28;20722;-56
2023/11/19 09:03:42;;;;;;;0.70;0.70;;;8.20;69.60;;;8.56;54.98;94647.47;5014905;28;20248;-58
2023/11/19 09:06:10;;;;;;;0.70;0.70;;;8.20;68.50;;;8.55;55.06;94639.81;5014643;28;20225;-56
2023/11/19 09:08:37;;;;;;;0.70;0.70;;;8.20;68.50;;;8.63;55.12;94647.53;5014727;28;20202;-55
2023/11/19 09:11:08;;;;;;;0.60;0.60;;;8.20;68.50;;;8.57;55.20;94628.16;5014831;28;20666;-58
2023/11/19 09:13:36;;;;;;;0.60;0.60;;;8.30;68.80;;;8.63;55.29;94629.25;5014591;28;20202;-57
2023/11/19 09:16:04;;;;;;;0.70;0.70;;;8.30;68.60;;;8.62;55.27;94625.00;5014599;28;20203;-57
2023/11/19 09:18:32;;;;;;;0.60;0.60;;;8.30;69.50;;;8.60;55.58;94622.56;5014306;28;20256;-57
2023/11/19 09:20:59;;;;;;;0.60;0.60;;;8.40;69.30;;;8.52;55.59;94616.66;5014479;28;20267;-56
2023/11/19 09:23:29;;;;;;;0.70;0.70;;;8.40;68.30;;;8.45;55.80;94617.34;5014423;28;20194;-57
2023/11/19 09:25:56;;;;;;;0.70;0.70;;;8.40;68.40;;;8.41;56.02;94608.28;5014282;28;20620;-56
2023/11/19 09:28:24;;;;;;;0.70;0.70;;;8.40;68.50;;;8.53;55.97;94611.22;5029354;28;20580;-57
2023/11/19 09:30:51;;;;;;;0.70;0.70;;;8.40;68.60;;;8.57;55.88;94609.88;5014351;28;20201;-59
2023/11/19 09:33:19;;;;;;;0.68;0.68;;;8.50;68.80;;;8.69;55.89;94610.19;5014213;28;20254;-58
2023/11/19 09:35:49;;;;;;;0.60;0.60;;;8.50;68.90;;;8.77;56.04;94601.41;5014730;28;20181;-56
2023/11/19 09:38:17;;;;;;;0.70;0.70;;;8.50;68.90;;;8.81;55.94;94600.00;5014123;28;20186;-56
2023/11/19 09:40:45;;;;;;;0.57;0.57;;;8.60;69.20;;;8.89;56.24;94593.84;5014151;28;20217;-57
2023/11/19 09:43:14;;;;;;;0.68;0.68;;;8.70;69.20;;;8.93;56.12;94595.88;5013950;28;20197;-58
2023/11/19 09:45:52;;;;;;;0.60;0.60;;;8.70;69.20;;;9.03;56.02;94595.56;5013873;28;20205;-56
2023/11/19 09:48:20;;;;;;;0.70;0.70;;;8.80;69.60;;;9.10;56.13;94590.38;5029022;28;20197;-57
2023/11/19 09:50:49;;;;;;;0.60;0.60;;;8.90;69.30;;;9.15;56.23;94590.63;5029537;28;20603;-57
2023/11/19 09:53:16;;;;;;;0.60;0.60;;;8.90;69.40;;;9.21;55.94;94578.59;5013792;28;20224;-57
2023/11/19 09:55:45;;;;;;;0.60;0.60;;;9.00;69.50;;;9.31;56.51;94583.47;5013838;28;20284;-59
2023/11/19 09:58:15;;;;;;;0.70;0.70;;;9.00;69.70;;;9.35;56.60;94566.38;5012443;28;20197;-51
2023/11/19 10:00:43;;;;;;;0.60;0.60;;;9.10;70.00;;;9.46;56.52;94581.56;5028831;28;20235;-58
2023/11/19 10:03:19;;;;;;;0.70;0.70;;;9.20;70.10;;;9.55;56.75;94585.63;5013719;28;20574;-57
2023/11/19 10:05:47;;;;;;;0.60;0.60;;;9.30;70.10;;;9.64;56.77;94588.09;5013421;28;20243;-55
2023/11/19 10:08:16;;;;;;;0.70;0.70;;;9.40;70.30;;;9.71;57.01;94581.88;5013738;28;20279;-58
2023/11/19 10:10:44;;;;;;;0.70;0.70;;;9.40;70.40;;;9.73;57.15;94563.38;5013180;28;20209;-59
2023/11/19 10:13:13;;;;;;;0.60;0.60;;;9.50;70.30;;;9.82;57.07;94564.81;5028980;28;20291;-58
2023/11/19 10:15:43;;;;;;;0.70;0.70;;;9.60;70.40;;;9.88;57.03;94571.88;5013454;28;20212;-58
2023/11/19 10:18:11;;;;;;;0.50;0.50;;;9.60;70.40;;;9.95;57.30;94574.53;5013439;28;20616;-58
2023/11/19 10:20:41;;;;;;;0.60;0.60;;;9.70;70.50;;;10.06;57.45;94571.34;5028739;28;20263;-57
2023/11/19 10:23:10;;;;;;;0.70;0.70;;;9.80;70.80;;;10.08;57.81;94556.25;5013184;28;20209;-58
2023/11/19 10:25:37;;;;;;;0.60;0.60;;;9.90;70.70;;;10.15;57.90;94552.84;5013504;28;20204;-55
2023/11/19 10:28:05;;;;;;;0.60;0.60;;;10.00;69.50;;;10.25;57.88;94556.69;5013155;28;20693;-56
2023/11/19 10:30:33;;;;;;;0.60;0.60;;;10.10;69.70;;;10.30;58.17;94550.84;5013199;28;20518;-58
2023/11/19 10:33:17;;;;;;;0.60;0.60;;;10.20;69.70;;;10.41;57.96;94545.06;5045068;28;20197;-59
2023/11/19 10:35:57;;;;;;;0.60;0.60;;;10.20;70.30;;;10.46;57.91;94547.06;5013095;28;20188;-58
2023/11/19 10:38:28;;;;;;;0.60;0.60;;;10.30;70.00;;;10.55;58.01;94548.47;5045134;28;20207;-58